createdAt,value
2018-01-06T00:02:01.211Z,83.10
2018-01-06T00:04:28.684Z,83.20
2018-01-06T00:06:56.155Z,83.00
2018-01-06T00:09:23.671Z,83.00
2018-01-06T00:11:51.944Z,83.00
2018-01-06T00:14:19.416Z,82.90
2018-01-06T00:16:46.907Z,82.80
2018-01-06T00:19:15.143Z,83.70
2018-01-06T00:21:42.614Z,83.60
2018-01-06T00:24:10.207Z,83.70
2018-01-06T00:26:37.692Z,83.80
2018-01-06T00:29:05.927Z,84.10
2018-01-06T00:31:33.414Z,84.00
2018-01-06T00:34:00.886Z,84.00
2018-01-06T00:36:28.358Z,84.10
2018-01-06T00:38:56.052Z,84.20
2018-01-06T00:41:23.523Z,84.10
2018-01-06T00:43:51.096Z,84.40
2018-01-06T00:46:18.667Z,84.40
2018-01-06T00:48:46.239Z,84.50
2018-01-06T00:51:13.715Z,85.00
2018-01-06T00:53:41.223Z,84.20
2018-01-06T00:56:08.756Z,84.50
2018-01-06T00:58:36.231Z,84.60
2018-01-06T01:01:04.512Z,84.20
2018-01-06T01:03:31.983Z,84.30
2018-01-06T01:05:59.460Z,85.00
2018-01-06T01:08:27.018Z,84.90
2018-01-06T01:10:54.487Z,84.60
2018-01-06T01:13:22.727Z,85.10
2018-01-06T01:15:50.215Z,85.10
2018-01-06T01:18:17.690Z,85.00
2018-01-06T01:20:45.173Z,84.50
2018-01-06T01:23:12.676Z,84.40
2018-01-06T01:25:40.916Z,84.50
2018-01-06T01:28:08.394Z,84.50
2018-01-06T01:30:35.995Z,85.20
2018-01-06T01:33:03.555Z,84.70
2018-01-06T01:35:31.137Z,84.30
2018-01-06T01:37:58.707Z,84.00
2018-01-06T01:40:26.178Z,83.70
2018-01-06T01:42:53.751Z,83.00
2018-01-06T01:45:21.319Z,83.30
2018-01-06T01:47:48.791Z,83.80
2018-01-06T01:50:16.263Z,83.20
2018-01-06T01:52:43.756Z,83.60
2018-01-06T01:55:11.992Z,83.10
2018-01-06T01:57:39.480Z,83.00
2018-01-06T02:00:06.975Z,83.50
2018-01-06T02:02:35.212Z,83.90
2018-01-06T02:05:02.728Z,83.90
2018-01-06T02:07:30.295Z,84.10
2018-01-06T02:09:57.871Z,84.70
2018-01-06T02:12:25.343Z,84.50
2018-01-06T02:14:52.945Z,84.30
2018-01-06T02:17:20.486Z,83.10
2018-01-06T02:19:47.959Z,83.60
2018-01-06T02:22:15.560Z,83.60
2018-01-06T02:24:43.036Z,84.10
2018-01-06T02:27:10.509Z,84.60
2018-01-06T02:29:38.004Z,83.40
2018-01-06T02:32:05.511Z,83.60
2018-01-06T02:34:34.487Z,85.00
2018-01-06T02:37:02.117Z,84.90
2018-01-06T02:39:29.689Z,83.90
2018-01-06T02:41:57.159Z,83.50
2018-01-06T02:44:24.735Z,83.80
2018-01-06T02:46:52.275Z,83.80
2018-01-06T02:49:19.847Z,84.20
2018-01-06T02:51:47.347Z,84.50
2018-01-06T02:54:14.887Z,84.80
2018-01-06T02:56:42.355Z,84.70
2018-01-06T02:59:09.900Z,84.80
2018-01-06T03:01:37.399Z,84.80
2018-01-06T03:04:04.877Z,84.70
2018-01-06T03:06:32.478Z,84.40
2018-01-06T03:09:00.012Z,84.60
2018-01-06T03:11:27.490Z,85.00
2018-01-06T03:13:55.054Z,85.40
2018-01-06T03:16:22.527Z,85.30
2018-01-06T03:18:50.772Z,86.20
2018-01-06T03:21:18.263Z,86.10
2018-01-06T03:23:45.755Z,86.00
2018-01-06T03:26:13.991Z,86.20
2018-01-06T03:28:41.546Z,86.20
2018-01-06T03:31:09.084Z,86.50
2018-01-06T03:33:37.335Z,86.40
2018-01-06T03:36:04.907Z,86.40
2018-01-06T03:38:32.419Z,86.00
2018-01-06T03:41:00.027Z,85.70
2018-01-06T03:43:27.563Z,85.80
2018-01-06T03:45:55.133Z,85.40
2018-01-06T03:48:22.603Z,85.80
2018-01-06T03:50:50.093Z,85.60
2018-01-06T03:53:18.328Z,85.10
2018-01-06T03:55:45.832Z,85.00
2018-01-06T03:58:13.324Z,85.00
2018-01-06T04:00:41.597Z,84.00
2018-01-06T04:03:09.067Z,83.90
2018-01-06T04:05:36.560Z,84.40
2018-01-06T04:08:04.031Z,84.50
2018-01-06T04:10:31.571Z,84.30
2018-01-06T04:12:59.143Z,84.60
2018-01-06T04:15:26.618Z,84.50
2018-01-06T04:17:54.087Z,85.20
2018-01-06T04:20:21.651Z,85.70
2018-01-06T04:22:49.120Z,84.40
2018-01-06T04:25:16.595Z,85.10
2018-01-06T04:27:44.084Z,85.60
2018-01-06T04:30:12.356Z,85.60
2018-01-06T04:32:39.826Z,85.60
2018-01-06T04:35:07.315Z,86.00
2018-01-06T04:37:35.584Z,85.90
2018-01-06T04:40:03.051Z,85.90
2018-01-06T04:42:31.312Z,85.70
2018-01-06T04:44:58.787Z,85.60
2018-01-06T04:47:26.278Z,86.10
2018-01-06T04:49:53.767Z,86.30
2018-01-06T04:52:22.016Z,86.90
2018-01-06T04:54:49.507Z,86.80
2018-01-06T04:57:16.991Z,87.00
2018-01-06T04:59:45.234Z,88.00
2018-01-06T05:02:12.744Z,87.90
2018-01-06T05:04:40.249Z,88.00
2018-01-06T05:07:07.782Z,86.70
2018-01-06T05:09:35.255Z,85.80
2018-01-06T05:12:02.823Z,86.30
2018-01-06T05:14:30.394Z,85.90
2018-01-06T05:16:57.967Z,86.70
2018-01-06T05:19:25.454Z,85.90
2018-01-06T05:21:53.691Z,86.70
2018-01-06T05:24:21.230Z,86.60
2018-01-06T05:26:48.716Z,86.10
2018-01-06T05:29:16.192Z,86.60
2018-01-06T05:31:43.711Z,86.20
2018-01-06T05:34:11.314Z,88.20
2018-01-06T05:36:38.783Z,87.50
2018-01-06T05:39:06.322Z,85.70
2018-01-06T05:41:33.839Z,85.30
2018-01-06T05:44:01.362Z,85.10
2018-01-06T05:46:28.840Z,85.30
2018-01-06T05:48:56.440Z,85.40
2018-01-06T05:51:23.988Z,85.90
2018-01-06T05:53:51.481Z,86.40
2018-01-06T05:56:18.988Z,86.50
2018-01-06T05:58:46.529Z,86.60
2018-01-06T06:01:14.011Z,86.30
2018-01-06T06:03:41.511Z,86.20
2018-01-06T06:06:09.010Z,86.00
2018-01-06T06:08:36.574Z,86.00
2018-01-06T06:11:04.149Z,85.80
2018-01-06T06:13:31.627Z,85.90
2018-01-06T06:15:59.863Z,86.90
2018-01-06T06:18:27.375Z,86.10
2018-01-06T06:20:54.848Z,86.10
2018-01-06T06:23:22.321Z,86.00
2018-01-06T06:25:50.637Z,86.10
2018-01-06T06:28:18.210Z,86.10
2018-01-06T06:30:45.785Z,86.00
2018-01-06T06:33:13.275Z,85.90
2018-01-06T06:35:40.747Z,86.00
2018-01-06T06:38:08.295Z,85.90
2018-01-06T06:40:35.868Z,85.80
2018-01-06T06:43:03.438Z,85.60
2018-01-06T06:45:31.010Z,86.10
2018-01-06T06:47:58.551Z,85.70
2018-01-06T06:50:26.023Z,86.00
2018-01-06T06:52:53.533Z,85.60
2018-01-06T06:55:21.063Z,85.60
2018-01-06T06:57:48.543Z,85.70
2018-01-06T07:00:16.786Z,85.60
2018-01-06T07:02:44.300Z,85.60
2018-01-06T07:05:11.865Z,85.60
2018-01-06T07:07:39.344Z,85.60
2018-01-06T07:10:06.851Z,85.60
2018-01-06T07:12:34.324Z,85.60
2018-01-06T07:15:01.799Z,85.60
2018-01-06T07:17:29.311Z,86.00
2018-01-06T07:19:58.321Z,85.70
2018-01-06T07:22:25.796Z,85.70
2018-01-06T07:24:54.079Z,86.80
2018-01-06T07:27:21.654Z,86.00
2018-01-06T07:29:49.123Z,85.90
2018-01-06T07:32:16.614Z,86.00
2018-01-06T07:34:44.883Z,86.40
2018-01-06T07:37:12.451Z,86.20
2018-01-06T07:39:40.027Z,86.30
2018-01-06T07:42:07.491Z,86.20
2018-01-06T07:44:35.167Z,86.20
2018-01-06T07:47:02.656Z,86.00
2018-01-06T07:49:30.894Z,85.80
2018-01-06T07:51:58.367Z,85.80
2018-01-06T07:54:25.975Z,85.80
2018-01-06T07:56:53.446Z,85.80
2018-01-06T07:59:20.919Z,85.30
2018-01-06T08:01:49.171Z,85.90
2018-01-06T08:04:16.643Z,85.80
2018-01-06T08:06:44.114Z,85.70
2018-01-06T08:09:11.644Z,85.30
2018-01-06T08:11:39.217Z,85.40
2018-01-06T08:14:06.754Z,85.40
2018-01-06T08:16:34.227Z,85.80
2018-01-06T08:19:01.691Z,85.80
2018-01-06T08:21:29.170Z,85.80
2018-01-06T08:23:56.637Z,85.80
2018-01-06T08:26:24.136Z,85.80
2018-01-06T08:28:51.607Z,85.70
2018-01-06T08:31:19.147Z,85.70
2018-01-06T08:33:46.716Z,85.60
2018-01-06T08:36:14.182Z,85.50
2018-01-06T08:38:41.671Z,86.20
2018-01-06T08:41:09.906Z,85.80
2018-01-06T08:43:37.380Z,85.80
2018-01-06T08:46:04.870Z,85.40
2018-01-06T08:48:32.338Z,85.10
2018-01-06T08:50:59.808Z,85.30
2018-01-06T08:53:27.286Z,85.40
2018-01-06T08:55:54.862Z,85.40
2018-01-06T08:58:22.347Z,85.20
2018-01-06T09:00:49.907Z,85.20
2018-01-06T09:03:17.475Z,85.70
2018-01-06T09:05:44.946Z,85.80
2018-01-06T09:08:12.436Z,85.40
2018-01-06T09:10:40.790Z,84.70
2018-01-06T09:13:08.254Z,84.80
2018-01-06T09:15:35.787Z,83.70
2018-01-06T09:18:03.319Z,84.00
2018-01-06T09:20:30.812Z,85.20
2018-01-06T09:22:59.053Z,84.20
2018-01-06T09:25:26.614Z,84.20
2018-01-06T09:27:54.086Z,84.30
2018-01-06T09:30:21.595Z,84.20
2018-01-06T09:32:49.088Z,84.10
2018-01-06T09:35:17.323Z,83.60
2018-01-06T09:37:44.806Z,83.50
2018-01-06T09:41:54.400Z,84.00
2018-01-06T09:44:21.891Z,83.60
2018-01-06T09:46:50.190Z,81.60
2018-01-06T09:49:17.683Z,81.50
2018-01-06T09:51:45.159Z,82.40
2018-01-06T09:54:12.703Z,82.10
2018-01-06T09:56:40.190Z,81.60
2018-01-06T09:59:07.810Z,82.90
2018-01-06T10:01:36.102Z,82.00
2018-01-06T10:04:03.567Z,82.10
2018-01-06T10:06:31.151Z,82.00
2018-01-06T10:08:58.643Z,82.40
2018-01-06T10:11:26.939Z,83.10
2018-01-06T10:13:54.473Z,83.10
2018-01-06T10:16:21.978Z,83.20
2018-01-06T10:18:49.618Z,82.50
2018-01-06T10:21:18.595Z,82.20
2018-01-06T10:23:46.079Z,82.20
2018-01-06T10:26:13.567Z,81.60
2018-01-06T10:28:41.071Z,81.60
2018-01-06T10:31:09.327Z,81.40
2018-01-06T10:33:36.806Z,81.40
2018-01-06T10:36:04.283Z,81.80
2018-01-06T10:38:32.556Z,81.80
2018-01-06T10:41:00.043Z,81.80
2018-01-06T10:43:28.350Z,81.10
2018-01-06T10:45:55.827Z,81.10
2018-01-06T10:48:23.351Z,80.00
2018-01-06T10:50:50.830Z,81.10
2018-01-06T10:53:18.334Z,80.40
2018-01-06T10:55:45.810Z,79.70
2018-01-06T10:58:13.283Z,80.00
2018-01-06T11:00:46.390Z,79.50
2018-01-06T11:03:13.868Z,80.10
2018-01-06T11:05:41.359Z,78.70
2018-01-06T11:08:08.826Z,78.70
2018-01-06T11:10:36.422Z,78.70
2018-01-06T11:13:03.927Z,78.60
2018-01-06T11:15:31.395Z,78.50
2018-01-06T11:17:58.890Z,77.90
2018-01-06T11:20:26.354Z,78.30
2018-01-06T11:22:53.881Z,78.40
2018-01-06T11:26:33.611Z,80.70
2018-01-06T11:41:11.514Z,76.50
2018-01-06T11:43:39.750Z,77.10
2018-01-06T11:46:07.262Z,76.40
2018-01-06T11:48:34.747Z,77.60
2018-01-06T11:51:02.983Z,78.30
2018-01-06T11:53:30.512Z,77.50
2018-01-06T11:55:58.748Z,77.50
2018-01-06T11:58:26.219Z,77.50
2018-01-06T12:00:53.834Z,78.00
2018-01-06T12:03:21.300Z,76.50
2018-01-06T12:05:48.801Z,76.60
2018-01-06T12:08:16.274Z,76.50
2018-01-06T12:10:43.786Z,76.10
2018-01-06T12:13:11.328Z,76.60
2018-01-06T12:15:39.331Z,76.70
2018-01-06T12:18:06.822Z,76.60
2018-01-06T12:20:34.291Z,76.70
2018-01-06T12:23:01.783Z,76.70
2018-01-06T12:25:29.267Z,76.30
2018-01-06T12:27:57.519Z,76.20
2018-01-06T12:30:25.249Z,76.00
2018-01-06T12:32:52.749Z,75.90
2018-01-06T12:35:20.210Z,76.10
2018-01-06T12:37:47.727Z,76.90
2018-01-06T12:40:15.239Z,76.90
2018-01-06T12:42:42.811Z,76.90
2018-01-06T12:45:10.380Z,76.30
2018-01-06T12:47:37.953Z,75.90
2018-01-06T12:50:05.505Z,76.20
2018-01-06T12:52:33.767Z,76.90
2018-01-06T12:55:01.251Z,76.90
2018-01-06T12:57:28.739Z,76.80
2018-01-06T12:59:56.976Z,76.80
2018-01-06T13:02:24.474Z,76.70
2018-01-06T13:04:52.054Z,76.80
2018-01-06T13:07:19.537Z,76.80
2018-01-06T13:09:48.151Z,78.00
2018-01-06T13:12:15.694Z,77.80
2018-01-06T13:14:43.265Z,78.00
2018-01-06T13:17:10.839Z,78.00
2018-01-06T13:19:38.316Z,78.20
2018-01-06T13:22:05.815Z,78.20
2018-01-06T13:24:33.286Z,78.00
2018-01-06T13:27:00.819Z,77.10
2018-01-06T13:29:28.430Z,76.90
2018-01-06T13:31:55.928Z,78.00
2018-01-06T13:34:23.439Z,78.00
2018-01-06T13:36:50.958Z,76.90
2018-01-06T13:39:18.431Z,77.00
2018-01-06T13:41:45.909Z,77.00
2018-01-06T13:44:13.418Z,77.00
2018-01-06T13:46:41.711Z,77.00
2018-01-06T13:49:09.175Z,77.00
2018-01-06T13:51:36.684Z,77.00
2018-01-06T13:54:04.257Z,76.40
2018-01-06T13:56:31.827Z,77.90
2018-01-06T13:58:59.358Z,77.00
2018-01-06T14:01:26.836Z,77.00
2018-01-06T14:03:54.407Z,77.00
2018-01-06T14:06:21.982Z,77.00
2018-01-06T14:08:49.459Z,78.50
2018-01-06T14:11:17.012Z,77.10
2018-01-06T14:13:44.594Z,77.50
2018-01-06T14:16:12.306Z,78.00
2018-01-06T14:18:39.847Z,78.50
2018-01-06T14:21:07.402Z,78.70
2018-01-06T14:23:34.896Z,78.70
2018-01-06T14:26:03.150Z,78.90
2018-01-06T14:28:30.618Z,78.90
2018-01-06T14:30:58.216Z,78.50
2018-01-06T14:33:25.694Z,78.90
2018-01-06T14:35:53.296Z,78.60
2018-01-06T14:38:20.868Z,78.80
2018-01-06T14:40:48.442Z,78.40
2018-01-06T14:43:16.013Z,78.70
2018-01-06T14:45:43.492Z,78.90
2018-01-06T14:48:11.058Z,78.50
2018-01-06T14:50:38.534Z,78.50
2018-01-06T14:53:06.203Z,78.50
2018-01-06T14:55:33.740Z,78.60
2018-01-06T14:58:01.318Z,78.80
2018-01-06T15:00:28.882Z,79.00
2018-01-06T15:02:56.358Z,78.80
2018-01-06T15:05:23.931Z,79.00
2018-01-06T15:07:51.419Z,79.30
2018-01-06T15:10:19.654Z,79.50
2018-01-06T15:12:47.146Z,79.40
2018-01-06T15:15:14.623Z,79.60
2018-01-06T15:17:42.094Z,79.60
2018-01-06T15:20:11.098Z,80.30
2018-01-06T15:22:38.563Z,80.20
2018-01-06T15:25:06.055Z,80.20
2018-01-06T15:27:34.295Z,81.60
2018-01-06T15:30:01.775Z,80.80
2018-01-06T15:32:29.254Z,80.90
2018-01-06T15:34:56.748Z,81.40
2018-01-06T15:37:24.350Z,81.60
2018-01-06T15:39:51.824Z,81.90
2018-01-06T15:42:19.295Z,81.90
2018-01-06T15:44:46.802Z,82.00
2018-01-06T15:47:14.287Z,82.10
2018-01-06T15:49:41.875Z,82.00
2018-01-06T15:52:09.346Z,81.90
2018-01-06T15:54:36.821Z,82.00
2018-01-06T15:57:04.332Z,82.10
2018-01-06T15:59:31.814Z,82.20
2018-01-06T16:01:59.308Z,82.40
2018-01-06T16:04:26.779Z,82.30
2018-01-06T16:06:54.251Z,82.70
2018-01-06T16:09:21.835Z,82.80
2018-01-06T16:11:49.331Z,82.70
2018-01-06T16:14:17.598Z,83.10
2018-01-06T16:16:45.076Z,83.10
2018-01-06T16:19:14.059Z,83.40
2018-01-06T16:21:41.578Z,83.30
2018-01-06T16:24:09.818Z,83.50
2018-01-06T16:26:37.406Z,83.50
2018-01-06T16:29:04.887Z,83.70
2018-01-06T16:31:33.130Z,83.90
2018-01-06T16:34:00.630Z,83.90
2018-01-06T16:36:28.102Z,83.80
2018-01-06T16:38:55.603Z,83.80
2018-01-06T16:41:23.861Z,84.00
2018-01-06T16:43:51.367Z,84.00
2018-01-06T16:46:18.938Z,84.20
2018-01-06T16:48:46.414Z,84.20
2018-01-06T16:51:13.914Z,84.40
2018-01-06T16:53:41.390Z,84.50
2018-01-06T16:56:08.867Z,84.30
2018-01-06T16:58:36.354Z,84.40
2018-01-06T17:01:04.650Z,84.40
2018-01-06T17:03:32.914Z,84.50
2018-01-06T17:06:00.398Z,84.40
2018-01-06T17:08:27.866Z,84.40
2018-01-06T17:10:55.354Z,84.50
2018-01-06T17:13:23.591Z,84.70
2018-01-06T17:15:51.087Z,84.60
2018-01-06T17:18:18.642Z,84.60
2018-01-06T17:20:46.148Z,84.70
2018-01-06T17:23:13.634Z,84.60
2018-01-06T17:25:41.879Z,84.60
2018-01-06T17:28:09.414Z,84.50
2018-01-06T17:30:36.894Z,84.40
2018-01-06T17:33:04.416Z,84.40
2018-01-06T17:35:31.902Z,84.40
2018-01-06T17:38:00.179Z,84.60
2018-01-06T17:40:27.782Z,84.50
2018-01-06T17:42:55.251Z,84.60
2018-01-06T17:45:22.823Z,84.50
2018-01-06T17:47:50.324Z,85.40
2018-01-06T17:50:17.831Z,84.70
2018-01-06T17:52:45.323Z,84.60
2018-01-06T17:55:13.588Z,84.80
2018-01-06T17:57:41.167Z,84.70
2018-01-06T18:00:08.666Z,84.80
2018-01-06T18:02:36.138Z,84.60
2018-01-06T18:05:03.731Z,84.70
2018-01-06T18:07:31.926Z,85.00
2018-01-06T18:09:59.399Z,84.90
2018-01-06T18:12:26.878Z,84.80
2018-01-06T18:14:54.354Z,84.70
2018-01-06T18:17:21.847Z,84.50
2018-01-06T18:19:49.448Z,84.60
2018-01-06T18:22:16.945Z,85.20
2018-01-06T18:24:44.457Z,84.20
2018-01-06T18:27:11.925Z,84.00
2018-01-06T18:29:39.535Z,84.10
2018-01-06T18:32:07.014Z,83.90
2018-01-06T18:34:34.614Z,83.60
2018-01-06T18:37:02.145Z,83.60
2018-01-06T18:39:29.718Z,83.40
2018-01-06T18:41:57.209Z,83.30
2018-01-06T18:44:24.675Z,83.10
2018-01-06T18:46:52.195Z,82.60
2018-01-06T18:49:19.803Z,82.40
2018-01-06T18:51:47.274Z,82.40
2018-01-06T18:54:14.769Z,82.30
2018-01-06T18:56:42.271Z,82.20
2018-01-06T18:59:09.738Z,82.00
2018-01-06T19:01:37.334Z,81.90
2018-01-06T19:04:05.585Z,81.50
2018-01-06T19:06:33.080Z,81.50
2018-01-06T19:09:00.559Z,81.70
2018-01-06T19:11:28.026Z,81.60
2018-01-06T19:13:55.508Z,80.70
2018-01-06T19:16:23.768Z,80.90
2018-01-06T19:18:51.298Z,80.80
2018-01-06T19:21:18.786Z,81.10
2018-01-06T19:23:46.303Z,80.70
2018-01-06T19:26:14.547Z,80.80
2018-01-06T19:28:42.046Z,80.60
2018-01-06T19:31:09.522Z,80.60
2018-01-06T19:33:37.754Z,80.60
2018-01-06T19:36:05.250Z,80.70
2018-01-06T19:38:32.751Z,80.60
2018-01-06T19:41:00.216Z,80.60
2018-01-06T19:43:27.703Z,80.60
2018-01-06T19:45:56.012Z,80.60
2018-01-06T19:48:23.510Z,80.50
2018-01-06T19:50:50.983Z,80.50
2018-01-06T19:53:18.483Z,80.60
2018-01-06T19:55:45.971Z,80.60
2018-01-06T19:58:14.247Z,80.30
2018-01-06T20:00:41.729Z,80.20
2018-01-06T20:03:09.970Z,80.30
2018-01-06T20:05:37.487Z,80.20
2018-01-06T20:08:05.752Z,80.60
2018-01-06T20:10:33.223Z,80.60
2018-01-06T20:13:00.904Z,80.50
2018-01-06T20:15:28.487Z,80.50
2018-01-06T20:17:56.347Z,80.50
2018-01-06T20:20:23.934Z,80.20
2018-01-06T20:22:51.432Z,80.10
2018-01-06T20:25:19.832Z,79.80
2018-01-06T20:27:47.366Z,79.80
2018-01-06T20:30:14.874Z,79.90
2018-01-06T20:32:42.426Z,79.50
2018-01-06T20:35:10.670Z,79.50
2018-01-06T20:37:38.175Z,79.50
2018-01-06T20:40:05.674Z,79.50
2018-01-06T20:42:33.286Z,79.40
2018-01-06T20:45:00.751Z,79.50
2018-01-06T20:47:28.219Z,79.60
2018-01-06T20:49:55.726Z,79.00
2018-01-06T20:52:23.211Z,78.90
2018-01-06T20:54:51.516Z,78.70
2018-01-06T20:57:19.088Z,78.70
2018-01-06T20:59:46.563Z,78.40
2018-01-06T21:02:14.094Z,78.50
2018-01-06T21:04:41.602Z,78.30
2018-01-06T21:07:09.194Z,78.40
2018-01-06T21:09:36.675Z,78.10
2018-01-06T21:12:04.214Z,77.90
2018-01-06T21:14:31.739Z,78.20
2018-01-06T21:16:59.211Z,77.80
2018-01-06T21:19:26.770Z,77.80
2018-01-06T21:21:54.248Z,78.10
2018-01-06T21:24:21.742Z,77.90
2018-01-06T21:26:49.235Z,77.80
2018-01-06T21:29:16.811Z,77.00
2018-01-06T21:31:45.043Z,77.10
2018-01-06T21:34:12.651Z,77.10
2018-01-06T21:36:40.118Z,77.20
2018-01-06T21:39:07.690Z,77.10
2018-01-06T21:41:35.163Z,77.50
2018-01-06T21:44:02.634Z,76.90
2018-01-06T21:46:30.115Z,76.80
2018-01-06T21:48:58.351Z,77.30
2018-01-06T21:51:25.837Z,77.20
2018-01-06T21:53:53.333Z,77.10
2018-01-06T21:56:20.832Z,77.00
2018-01-06T21:58:49.083Z,77.10
2018-01-06T22:01:16.550Z,77.10
2018-01-06T22:03:44.086Z,77.20
2018-01-06T22:06:11.598Z,77.50
2018-01-06T22:08:39.082Z,77.50
2018-01-06T22:11:06.574Z,78.00
2018-01-06T22:13:34.173Z,77.50
2018-01-06T22:16:02.383Z,78.80
2018-01-06T22:18:29.876Z,78.70
2018-01-06T22:20:57.442Z,79.00
2018-01-06T22:23:24.927Z,79.20
2018-01-06T22:25:52.394Z,79.50
2018-01-06T22:28:51.282Z,79.40
2018-01-06T22:31:18.770Z,79.30
2018-01-06T22:33:46.342Z,78.70
2018-01-06T22:36:13.922Z,79.40
2018-01-06T22:38:41.495Z,79.30
2018-01-06T22:41:08.975Z,79.50
2018-01-06T22:43:37.215Z,79.70
2018-01-06T22:48:20.522Z,79.30
2018-01-06T22:50:47.998Z,79.70
2018-01-06T22:53:16.262Z,79.80
2018-01-06T22:55:43.750Z,79.70
2018-01-06T22:58:11.236Z,79.40
2018-01-06T23:00:40.090Z,80.20
2018-01-06T23:03:07.566Z,80.00
2018-01-06T23:05:35.062Z,79.00
2018-01-06T23:08:02.638Z,79.30
2018-01-06T23:10:30.110Z,79.50
2018-01-06T23:12:57.679Z,79.30
2018-01-06T23:15:25.259Z,79.40
2018-01-06T23:17:53.538Z,79.70
2018-01-06T23:20:22.523Z,79.70
2018-01-06T23:22:50.016Z,79.50
2018-01-06T23:25:17.514Z,79.70
2018-01-06T23:27:45.773Z,79.40
2018-01-06T23:30:13.362Z,79.40
2018-01-06T23:32:42.930Z,80.40
2018-01-06T23:35:10.576Z,79.60
2018-01-06T23:37:38.115Z,79.60
2018-01-06T23:40:05.606Z,79.60
2018-01-06T23:42:33.191Z,79.90
2018-01-06T23:45:00.747Z,79.80
2018-01-06T23:47:28.360Z,80.30
2018-01-06T23:49:55.859Z,80.40
2018-01-06T23:52:23.330Z,80.40
2018-01-06T23:54:50.824Z,80.00
2018-01-06T23:57:19.102Z,80.40
2018-01-06T23:59:46.582Z,80.30
